Time;durP1;ratioP1;P1;durP2;ratioP2;P2;SDS_P1;SDS_P2;PMS_P1;PMS_P2;Temp;Humidity;BMP_temperature;BMP_pressure;BME280_temperature;BME280_humidity;BME280_pressure;Samples;Min_cycle;Max_cycle;Signal;HPM_P1;HPM_P2
2023/08/14 00:01:32;;;;;;;0.30;0.30;;;14.90;99.90;;;;;;4986598;28;20521;-72
2023/08/14 00:03:58;;;;;;;0.68;0.60;;;14.50;99.90;;;;;;5006556;28;20457;-72
2023/08/14 00:06:23;;;;;;;0.38;0.38;;;14.70;99.90;;;;;;5006152;28;20156;-73
2023/08/14 00:08:49;;;;;;;0.30;0.30;;;14.90;99.90;;;;;;5007742;28;20049;-72
2023/08/14 00:14:55;;;;;;;0.30;0.30;;;14.60;99.90;;;;;;5003977;28;20137;-72
2023/08/14 00:17:21;;;;;;;0.52;0.52;;;14.90;99.90;;;;;;5009429;28;20194;-72
2023/08/14 00:19:46;;;;;;;0.40;0.40;;;14.80;99.90;;;;;;5005667;28;20556;-71
2023/08/14 00:22:12;;;;;;;0.30;0.30;;;14.50;99.90;;;;;;4990100;28;20034;-72
2023/08/14 00:24:37;;;;;;;0.30;0.30;;;14.30;99.90;;;;;;5007665;28;20402;-72
2023/08/14 00:27:03;;;;;;;0.30;0.30;;;14.60;99.90;;;;;;4992502;28;20249;-74
2023/08/14 00:29:30;;;;;;;0.40;0.40;;;14.50;99.90;;;;;;5003861;28;20148;-72
2023/08/14 00:31:55;;;;;;;0.75;0.73;;;14.50;99.90;;;;;;5006920;28;20042;-72
2023/08/14 00:34:21;;;;;;;0.35;0.35;;;14.40;99.90;;;;;;5004772;28;20048;-72
2023/08/14 00:36:47;;;;;;;0.30;0.30;;;14.60;99.90;;;;;;5002907;28;20390;-72
2023/08/14 00:39:13;;;;;;;0.30;0.30;;;14.30;99.90;;;;;;5006713;28;20064;-72
2023/08/14 00:41:38;;;;;;;0.38;0.38;;;14.20;99.90;;;;;;5006922;28;20037;-72
2023/08/14 00:44:04;;;;;;;0.30;0.30;;;14.30;99.90;;;;;;4999461;28;20116;-72
2023/08/14 00:46:31;;;;;;;0.55;0.55;;;14.40;99.90;;;;;;5006067;28;20545;-72
2023/08/14 00:48:56;;;;;;;0.85;0.50;;;14.30;99.90;;;;;;5003903;28;20041;-71
2023/08/14 00:51:23;;;;;;;0.40;0.40;;;14.20;99.90;;;;;;4999490;28;20042;-72
2023/08/14 00:53:50;;;;;;;0.30;0.30;;;14.50;99.90;;;;;;5006064;28;20449;-74
2023/08/14 00:56:16;;;;;;;0.30;0.30;;;14.40;99.90;;;;;;4999423;28;20042;-72
2023/08/14 00:58:42;;;;;;;0.38;0.38;;;14.30;99.90;;;;;;5005633;28;20545;-72
2023/08/14 01:01:08;;;;;;;0.30;0.30;;;14.20;99.90;;;;;;5005319;28;20034;-75
2023/08/14 01:03:36;;;;;;;0.43;0.43;;;14.30;99.90;;;;;;5018578;28;20041;-72
2023/08/14 01:06:01;;;;;;;0.45;0.45;;;14.00;99.90;;;;;;5003228;28;20104;-72
2023/08/14 01:08:28;;;;;;;0.30;0.30;;;14.40;99.90;;;;;;5006338;28;20577;-72
2023/08/14 01:11:18;;;;;;;0.40;0.40;;;14.20;99.90;;;;;;5006827;28;20050;-71
2023/08/14 01:13:58;;;;;;;0.30;0.30;;;14.30;99.90;;;;;;5006972;28;20042;-72
2023/08/14 01:16:30;;;;;;;0.40;0.40;;;14.00;99.90;;;;;;5005144;28;20076;-72
2023/08/14 01:18:58;;;;;;;1.25;0.45;;;14.00;99.90;;;;;;4993630;28;20477;-73
2023/08/14 01:21:49;;;;;;;0.40;0.40;;;14.10;99.90;;;;;;5004260;28;20038;-72
2023/08/14 01:24:22;;;;;;;0.30;0.30;;;14.20;99.90;;;;;;5004997;28;20038;-72
2023/08/14 01:26:48;;;;;;;0.40;0.40;;;14.00;99.90;;;;;;5003465;28;20042;-72
2023/08/14 01:29:14;;;;;;;0.25;0.25;;;14.00;99.90;;;;;;4990165;28;20125;-72
2023/08/14 01:31:39;;;;;;;0.30;0.30;;;14.10;99.90;;;;;;5000314;28;20527;-72
2023/08/14 01:34:05;;;;;;;0.30;0.30;;;13.90;99.90;;;;;;4990320;28;20285;-71
2023/08/14 01:36:53;;;;;;;0.30;0.30;;;14.10;99.90;;;;;;5005954;28;20370;-74
2023/08/14 01:39:23;;;;;;;0.40;0.40;;;14.00;99.90;;;;;;5005798;28;20117;-72
2023/08/14 01:42:14;;;;;;;0.40;0.40;;;13.80;99.90;;;;;;5006563;28;20041;-72
2023/08/14 01:44:42;;;;;;;0.32;0.32;;;13.70;99.90;;;;;;5009689;28;20124;-72
2023/08/14 01:47:12;;;;;;;0.40;0.40;;;13.80;99.90;;;;;;4992816;28;20034;-72
2023/08/14 01:49:40;;;;;;;0.32;0.32;;;13.70;99.90;;;;;;4993399;28;20042;-72
2023/08/14 01:52:06;;;;;;;0.40;0.40;;;13.80;99.90;;;;;;5001631;28;20520;-72
2023/08/14 01:56:58;;;;;;;0.30;0.30;;;13.70;99.90;;;;;;5673044;23;20055;-72
2023/08/14 01:59:56;;;;;;;0.40;0.40;;;13.70;99.90;;;;;;4996314;28;20046;-72
2023/08/14 02:02:22;;;;;;;0.40;0.40;;;13.80;99.90;;;;;;5004151;28;20137;-72
2023/08/14 02:04:47;;;;;;;0.40;0.40;;;13.70;99.90;;;;;;4975174;28;20124;-72
2023/08/14 02:07:13;;;;;;;0.40;0.40;;;13.90;99.90;;;;;;5005479;28;20048;-71
2023/08/14 02:09:39;;;;;;;0.50;0.50;;;13.80;99.90;;;;;;4970199;28;20050;-72
2023/08/14 02:12:05;;;;;;;0.30;0.30;;;13.90;99.90;;;;;;4999370;28;20155;-74
2023/08/14 02:14:31;;;;;;;0.30;0.30;;;13.80;99.90;;;;;;4988144;28;20117;-72
2023/08/14 02:16:56;;;;;;;0.30;0.30;;;13.90;99.90;;;;;;5005011;28;20557;-72
2023/08/14 02:19:23;;;;;;;0.40;0.40;;;13.80;99.90;;;;;;4998438;28;20049;-73
2023/08/14 02:21:51;;;;;;;0.20;0.20;;;13.60;99.90;;;;;;4979231;28;20046;-72
2023/08/14 02:24:18;;;;;;;0.40;0.40;;;13.40;99.90;;;;;;4986048;28;20566;-71
2023/08/14 02:26:44;;;;;;;0.25;0.25;;;13.30;99.90;;;;;;4995244;28;20034;-72
2023/08/14 02:29:10;;;;;;;0.30;0.30;;;13.30;99.90;;;;;;4994127;28;20046;-72
2023/08/14 02:31:36;;;;;;;0.40;0.40;;;13.50;99.90;;;;;;4984966;28;20042;-71
2023/08/14 02:34:02;;;;;;;0.32;0.32;;;13.40;99.90;;;;;;4981849;28;20103;-71
2023/08/14 02:36:28;;;;;;;0.65;0.65;;;13.40;99.90;;;;;;4992055;28;20042;-73
2023/08/14 02:38:55;;;;;;;0.50;0.50;;;13.20;99.90;;;;;;5003616;28;20531;-71
2023/08/14 02:41:21;;;;;;;0.30;0.30;;;13.30;99.90;;;;;;5000222;28;20041;-71
2023/08/14 02:43:47;;;;;;;0.40;0.40;;;13.10;99.90;;;;;;4987338;28;20117;-71
2023/08/14 02:46:13;;;;;;;0.30;0.30;;;13.40;99.90;;;;;;4986730;28;20129;-75
2023/08/14 02:48:40;;;;;;;0.30;0.30;;;13.50;99.90;;;;;;4987416;28;20211;-72
2023/08/14 02:57:22;;;;;;;0.40;0.40;;;13.20;99.90;;;;;;5529511;23;20124;-69
2023/08/14 02:59:48;;;;;;;0.40;0.40;;;13.10;99.90;;;;;;5024017;28;20558;-72
2023/08/14 03:02:13;;;;;;;0.30;0.30;;;13.00;99.90;;;;;;5007863;28;20448;-74
2023/08/14 03:04:39;;;;;;;0.40;0.40;;;13.20;99.90;;;;;;5004136;28;20041;-72
2023/08/14 03:07:05;;;;;;;0.30;0.30;;;13.30;99.90;;;;;;5008025;28;20046;-73
2023/08/14 03:09:30;;;;;;;0.30;0.30;;;13.20;99.90;;;;;;5005177;28;20034;-72
2023/08/14 03:11:56;;;;;;;0.40;0.40;;;13.20;99.90;;;;;;5006782;28;20045;-75
2023/08/14 03:14:21;;;;;;;0.28;0.28;;;13.30;99.90;;;;;;5007917;28;20042;-72
2023/08/14 03:16:47;;;;;;;0.30;0.30;;;13.30;99.90;;;;;;4989666;28;20125;-72
2023/08/14 03:19:13;;;;;;;0.40;0.40;;;13.00;99.90;;;;;;5007689;28;20272;-73
2023/08/14 03:21:40;;;;;;;0.30;0.30;;;13.10;99.90;;;;;;4989238;28;20034;-73
2023/08/14 03:24:15;;;;;;;0.30;0.30;;;12.90;99.90;;;;;;5002944;28;20128;-72
2023/08/14 03:26:41;;;;;;;0.40;0.40;;;13.00;99.90;;;;;;4989844;28;20049;-72
2023/08/14 03:29:07;;;;;;;0.40;0.40;;;13.20;99.90;;;;;;5007328;28;20401;-72
2023/08/14 03:31:33;;;;;;;0.30;0.30;;;12.90;99.90;;;;;;4988128;28;20046;-72
2023/08/14 03:33:59;;;;;;;0.40;0.40;;;13.00;99.90;;;;;;5016125;28;20374;-74
2023/08/14 03:36:25;;;;;;;0.50;0.50;;;13.20;99.90;;;;;;5006728;28;20038;-72
2023/08/14 03:38:50;;;;;;;0.40;0.40;;;13.20;99.90;;;;;;4988021;28;20052;-72
2023/08/14 03:41:18;;;;;;;0.38;0.38;;;13.20;99.90;;;;;;5007363;28;20042;-72
2023/08/14 03:43:43;;;;;;;0.25;0.25;;;12.90;99.90;;;;;;5005207;28;20094;-72
2023/08/14 03:46:09;;;;;;;0.50;0.50;;;12.90;99.90;;;;;;5002804;28;20044;-75
2023/08/14 03:48:35;;;;;;;0.35;0.35;;;12.90;99.90;;;;;;5016705;28;20045;-73
2023/08/14 03:51:00;;;;;;;0.40;0.40;;;13.20;99.90;;;;;;5004947;28;20531;-72
2023/08/14 03:53:26;;;;;;;0.35;0.35;;;12.90;99.90;;;;;;5007149;28;20042;-72
2023/08/14 03:55:51;;;;;;;0.30;0.30;;;13.00;99.90;;;;;;5007329;28;20041;-74
2023/08/14 03:58:17;;;;;;;0.30;0.30;;;12.80;99.90;;;;;;5004669;28;20054;-72
2023/08/14 04:00:43;;;;;;;0.30;0.30;;;12.90;99.90;;;;;;5007319;28;20492;-72
2023/08/14 04:03:09;;;;;;;0.40;0.40;;;12.90;99.90;;;;;;5004785;28;20077;-72
2023/08/14 04:05:39;;;;;;;0.40;0.40;;;12.90;99.90;;;;;;5006306;28;20096;-72
2023/08/14 04:08:06;;;;;;;0.30;0.30;;;12.80;99.90;;;;;;5005935;28;20045;-75
2023/08/14 04:10:32;;;;;;;0.40;0.40;;;12.70;99.90;;;;;;4990056;28;20073;-72
2023/08/14 04:12:58;;;;;;;0.47;0.47;;;12.90;99.90;;;;;;5006824;28;20561;-72
2023/08/14 04:15:23;;;;;;;0.43;0.43;;;12.70;99.90;;;;;;5005766;28;20073;-72
2023/08/14 04:17:49;;;;;;;0.22;0.22;;;13.00;99.90;;;;;;4986132;28;20041;-72
2023/08/14 04:20:15;;;;;;;0.40;0.40;;;12.70;99.90;;;;;;5002511;28;20583;-72
2023/08/14 04:22:41;;;;;;;0.40;0.40;;;12.70;99.90;;;;;;5002896;28;20072;-73
2023/08/14 04:25:07;;;;;;;0.35;0.35;;;12.70;99.90;;;;;;5006542;28;20041;-72
2023/08/14 04:27:36;;;;;;;0.40;0.40;;;12.60;99.90;;;;;;4989096;28;20562;-72
2023/08/14 04:30:02;;;;;;;0.32;0.32;;;12.60;99.90;;;;;;4992890;28;20038;-72
2023/08/14 04:32:28;;;;;;;0.52;0.52;;;12.60;99.90;;;;;;5006467;28;20052;-72
2023/08/14 04:34:53;;;;;;;0.40;0.40;;;12.80;99.90;;;;;;5006916;28;20059;-72
2023/08/14 04:37:19;;;;;;;0.40;0.40;;;12.70;99.90;;;;;;5004038;28;20417;-72
2023/08/14 04:39:44;;;;;;;0.40;0.40;;;12.70;99.90;;;;;;5006218;28;20074;-71
2023/08/14 04:42:10;;;;;;;0.30;0.30;;;12.70;99.90;;;;;;5006176;28;20097;-73
2023/08/14 04:44:36;;;;;;;0.30;0.30;;;12.60;99.90;;;;;;5005968;28;20496;-76
2023/08/14 04:47:01;;;;;;;0.38;0.38;;;13.00;99.90;;;;;;5008993;28;20042;-72
2023/08/14 04:49:28;;;;;;;0.40;0.40;;;12.80;99.90;;;;;;5010914;28;20528;-71
2023/08/14 04:51:54;;;;;;;0.30;0.30;;;12.80;99.90;;;;;;5007604;28;20053;-71
2023/08/14 04:54:20;;;;;;;0.40;0.40;;;13.00;99.90;;;;;;4987798;28;20041;-71
2023/08/14 04:56:45;;;;;;;0.40;0.40;;;12.80;99.90;;;;;;5010544;28;20401;-71
2023/08/14 04:59:11;;;;;;;0.40;0.40;;;12.90;99.90;;;;;;5010128;28;20053;-72
2023/08/14 05:01:37;;;;;;;0.38;0.38;;;13.10;99.90;;;;;;5009784;28;20108;-72
2023/08/14 05:04:03;;;;;;;0.30;0.30;;;12.80;99.90;;;;;;5016157;28;20048;-72
2023/08/14 05:06:28;;;;;;;0.38;0.38;;;13.10;99.90;;;;;;4993473;28;20041;-71
2023/08/14 05:08:54;;;;;;;0.40;0.40;;;13.10;99.90;;;;;;5002748;28;20044;-71
2023/08/14 05:11:20;;;;;;;0.35;0.35;;;13.00;99.90;;;;;;4992587;28;20049;-71
2023/08/14 05:13:46;;;;;;;0.40;0.40;;;13.40;99.90;;;;;;5009980;28;20409;-72
2023/08/14 05:16:11;;;;;;;0.30;0.30;;;13.30;99.90;;;;;;5009981;28;20890;-73
2023/08/14 05:19:21;;;;;;;0.50;0.50;;;13.50;99.90;;;;;;5010756;28;20033;-72
2023/08/14 05:21:46;;;;;;;0.40;0.40;;;13.50;99.90;;;;;;5004345;28;20482;-74
2023/08/14 05:24:14;;;;;;;0.40;0.40;;;13.80;99.90;;;;;;4989702;28;20162;-73
2023/08/14 05:26:40;;;;;;;0.40;0.40;;;13.70;99.90;;;;;;5010520;28;20481;-73
2023/08/14 05:29:05;;;;;;;0.35;0.35;;;13.90;99.90;;;;;;4990750;28;20045;-73
2023/08/14 05:31:31;;;;;;;0.32;0.32;;;13.70;99.90;;;;;;5001739;28;20041;-74
2023/08/14 05:33:57;;;;;;;0.38;0.38;;;14.00;99.90;;;;;;5009493;28;20042;-73
2023/08/14 05:36:22;;;;;;;0.40;0.40;;;14.20;99.90;;;;;;4992663;28;20048;-72
2023/08/14 05:38:48;;;;;;;0.50;0.50;;;14.10;99.90;;;;;;5010579;28;20038;-73
2023/08/14 05:41:15;;;;;;;0.30;0.30;;;14.20;99.90;;;;;;4989507;28;20047;-73
2023/08/14 05:43:40;;;;;;;0.40;0.40;;;14.70;99.90;;;;;;5011078;28;20046;-72
2023/08/14 05:46:06;;;;;;;0.40;0.40;;;14.90;99.90;;;;;;5007054;28;20033;-73
2023/08/14 05:48:32;;;;;;;0.47;0.47;;;14.70;99.90;;;;;;4984651;28;20045;-71
2023/08/14 05:50:58;;;;;;;0.50;0.50;;;15.30;99.90;;;;;;5006318;28;20042;-70
2023/08/14 05:53:23;;;;;;;0.40;0.40;;;15.00;99.90;;;;;;4988065;28;20173;-74
2023/08/14 05:55:49;;;;;;;0.73;0.73;;;15.00;99.90;;;;;;5008168;28;20038;-74
2023/08/14 05:58:15;;;;;;;0.40;0.40;;;15.40;99.90;;;;;;5005163;28;20057;-74
2023/08/14 06:00:40;;;;;;;0.40;0.40;;;15.60;99.90;;;;;;4989309;28;20040;-73
2023/08/14 06:03:08;;;;;;;0.40;0.40;;;15.40;99.90;;;;;;5006353;28;20436;-74
2023/08/14 06:05:35;;;;;;;0.40;0.40;;;15.80;99.90;;;;;;4991922;28;20049;-74
2023/08/14 06:08:00;;;;;;;1.20;0.70;;;16.20;99.90;;;;;;5009553;28;20056;-74
2023/08/14 06:10:26;;;;;;;0.50;0.50;;;15.70;99.90;;;;;;5008821;28;20037;-74
2023/08/14 06:12:52;;;;;;;0.52;0.47;;;16.10;99.90;;;;;;5009191;28;20037;-74
2023/08/14 06:15:19;;;;;;;0.40;0.40;;;16.50;99.90;;;;;;4991439;28;20116;-74
2023/08/14 06:17:46;;;;;;;0.40;0.40;;;16.20;99.90;;;;;;5007061;28;20045;-74
2023/08/14 06:20:12;;;;;;;0.47;0.47;;;16.10;99.90;;;;;;5005377;28;20038;-73
2023/08/14 06:22:43;;;;;;;0.52;0.52;;;16.50;99.90;;;;;;5003113;28;20037;-74
2023/08/14 06:25:11;;;;;;;0.77;0.77;;;16.40;99.90;;;;;;5004967;28;20050;-74
2023/08/14 06:27:38;;;;;;;0.32;0.32;;;16.90;99.90;;;;;;5020923;28;20052;-74
2023/08/14 06:30:05;;;;;;;1.10;0.80;;;16.70;99.90;;;;;;4990869;28;20579;-74
2023/08/14 06:32:30;;;;;;;0.40;0.40;;;16.80;99.90;;;;;;4986521;28;20053;-74
2023/08/14 06:34:56;;;;;;;0.40;0.40;;;17.20;99.90;;;;;;5009239;28;20040;-73
2023/08/14 06:37:22;;;;;;;0.30;0.30;;;17.30;99.90;;;;;;4981167;28;20483;-75
2023/08/14 06:39:48;;;;;;;0.50;0.50;;;17.00;99.90;;;;;;5004085;28;20121;-76
2023/08/14 06:42:13;;;;;;;0.30;0.30;;;17.40;99.90;;;;;;4982004;28;20442;-72
2023/08/14 06:44:39;;;;;;;0.30;0.30;;;17.20;99.90;;;;;;4991876;28;20052;-72
2023/08/14 06:47:07;;;;;;;0.40;0.40;;;17.50;99.90;;;;;;4991927;28;20037;-71
2023/08/14 06:49:33;;;;;;;0.43;0.43;;;17.60;99.90;;;;;;4990813;28;20033;-72
2023/08/14 06:51:59;;;;;;;0.60;0.60;;;17.20;99.90;;;;;;5005065;28;20347;-73
2023/08/14 06:54:24;;;;;;;0.30;0.30;;;17.40;99.90;;;;;;5008017;28;20044;-73
2023/08/14 06:56:50;;;;;;;0.30;0.30;;;17.60;99.90;;;;;;4992497;28;20036;-73
2023/08/14 06:59:16;;;;;;;0.55;0.55;;;17.80;99.90;;;;;;4988306;28;20081;-73
2023/08/14 07:01:41;;;;;;;0.30;0.30;;;17.70;99.90;;;;;;5008397;28;20037;-73
2023/08/14 07:04:07;;;;;;;0.35;0.35;;;17.70;99.90;;;;;;4996876;28;20528;-73
2023/08/14 07:06:33;;;;;;;0.30;0.30;;;17.60;99.90;;;;;;5008465;28;20083;-73
2023/08/14 07:08:59;;;;;;;0.30;0.30;;;18.10;99.90;;;;;;5005145;28;20066;-73
2023/08/14 07:11:25;;;;;;;0.38;0.38;;;17.80;99.90;;;;;;5003685;28;20034;-72
2023/08/14 07:13:51;;;;;;;0.45;0.45;;;17.90;99.90;;;;;;5004802;28;20042;-72
2023/08/14 07:16:16;;;;;;;0.45;0.45;;;18.10;99.90;;;;;;4991347;28;20044;-73
2023/08/14 07:18:43;;;;;;;0.52;0.52;;;18.00;99.90;;;;;;4996926;28;20078;-72
2023/08/14 07:21:09;;;;;;;0.40;0.40;;;18.20;99.90;;;;;;5002601;28;20127;-73
2023/08/14 07:23:36;;;;;;;0.50;0.50;;;18.20;99.90;;;;;;5005153;28;20037;-73
2023/08/14 07:26:11;;;;;;;0.30;0.30;;;18.90;99.90;;;;;;4987485;28;20161;-72
2023/08/14 07:28:38;;;;;;;0.50;0.50;;;18.60;99.90;;;;;;4996387;28;20038;-72
2023/08/14 07:31:04;;;;;;;0.38;0.38;;;18.60;99.90;;;;;;5005356;28;20044;-72
2023/08/14 07:33:30;;;;;;;0.40;0.40;;;18.80;99.90;;;;;;5007128;28;20037;-72
2023/08/14 07:35:57;;;;;;;0.30;0.30;;;19.00;99.90;;;;;;5008777;28;20072;-72
2023/08/14 07:38:23;;;;;;;0.33;0.33;;;19.00;99.90;;;;;;5007462;28;20041;-73
2023/08/14 07:40:48;;;;;;;0.30;0.30;;;18.90;99.90;;;;;;5007465;28;20108;-72
2023/08/14 07:43:14;;;;;;;0.75;0.55;;;19.20;99.90;;;;;;5004730;28;20056;-72
2023/08/14 07:45:40;;;;;;;1.05;0.93;;;19.50;99.90;;;;;;5001052;28;20088;-72
2023/08/14 07:48:05;;;;;;;0.40;0.40;;;19.40;99.90;;;;;;5005775;28;20497;-72
2023/08/14 07:50:31;;;;;;;0.47;0.47;;;20.00;99.90;;;;;;5005803;28;20050;-73
2023/08/14 07:52:57;;;;;;;0.65;0.65;;;20.10;99.90;;;;;;5006339;28;20049;-72
2023/08/14 07:55:22;;;;;;;0.40;0.40;;;20.10;99.90;;;;;;5006365;28;20046;-72
2023/08/14 07:57:48;;;;;;;0.30;0.30;;;20.50;99.90;;;;;;5007273;28;20044;-72
2023/08/14 08:00:15;;;;;;;0.30;0.30;;;21.30;99.90;;;;;;5007052;28;20061;-72
2023/08/14 08:02:41;;;;;;;0.57;0.57;;;21.60;99.90;;;;;;5003943;28;20050;-72
2023/08/14 08:05:07;;;;;;;1.75;1.02;;;21.50;99.90;;;;;;4991441;28;20041;-72
2023/08/14 08:07:32;;;;;;;1.08;0.45;;;21.80;99.90;;;;;;5007373;28;20046;-72
2023/08/14 08:09:58;;;;;;;0.40;0.40;;;21.90;99.90;;;;;;5003579;28;20048;-72
2023/08/14 08:12:23;;;;;;;0.38;0.38;;;22.10;99.90;;;;;;5004816;28;20046;-72
2023/08/14 08:14:49;;;;;;;0.40;0.40;;;22.20;99.90;;;;;;5007548;28;20042;-72
2023/08/14 08:17:17;;;;;;;0.30;0.30;;;22.40;99.90;;;;;;5007367;28;20378;-72
2023/08/14 08:19:43;;;;;;;0.40;0.40;;;22.50;99.90;;;;;;5012036;28;20080;-72
2023/08/14 08:22:08;;;;;;;0.32;0.32;;;23.30;99.90;;;;;;5004156;28;20045;-72
2023/08/14 08:24:34;;;;;;;0.50;0.50;;;23.60;99.90;;;;;;5006799;28;20370;-72
2023/08/14 08:26:59;;;;;;;0.30;0.30;;;23.20;99.90;;;;;;5003431;28;20108;-72
2023/08/14 08:29:25;;;;;;;0.45;0.45;;;23.30;99.90;;;;;;5000572;28;20133;-72
2023/08/14 08:31:51;;;;;;;0.40;0.40;;;23.70;99.90;;;;;;5006896;28;20069;-72
2023/08/14 08:34:16;;;;;;;0.50;0.50;;;24.10;99.90;;;;;;4990962;28;20083;-72
2023/08/14 08:36:42;;;;;;;0.50;0.50;;;24.10;99.90;;;;;;5006659;28;20478;-73
2023/08/14 08:39:08;;;;;;;0.50;0.50;;;24.40;99.90;;;;;;5007180;28;20040;-73
2023/08/14 08:41:38;;;;;;;0.30;0.30;;;24.50;99.90;;;;;;5006320;28;20076;-72
2023/08/14 08:44:10;;;;;;;0.50;0.50;;;25.00;99.90;;;;;;5003683;28;20042;-72
2023/08/14 08:46:41;;;;;;;0.60;0.60;;;24.80;99.90;;;;;;4999903;28;20390;-73
2023/08/14 08:49:08;;;;;;;0.47;0.47;;;;;;;;;;4990187;28;20050;-73
2023/08/14 08:51:34;;;;;;;0.60;0.60;;;25.10;99.90;;;;;;5006351;28;20038;-72
2023/08/14 08:54:01;;;;;;;0.30;0.30;;;25.30;99.90;;;;;;5006749;28;20046;-72
2023/08/14 08:56:27;;;;;;;0.40;0.40;;;25.70;99.90;;;;;;5005665;28;20041;-72
2023/08/14 08:58:53;;;;;;;0.77;0.77;;;;;;;;;;5020311;28;20062;-72
2023/08/14 09:01:20;;;;;;;0.38;0.38;;;25.60;99.90;;;;;;5001779;28;20093;-76
2023/08/14 09:03:47;;;;;;;0.30;0.30;;;25.50;99.90;;;;;;5005102;28;20052;-76
2023/08/14 09:06:13;;;;;;;0.35;0.35;;;25.70;99.90;;;;;;5003673;28;20054;-76
2023/08/14 09:08:38;;;;;;;0.50;0.50;;;26.30;99.90;;;;;;4986934;28;20053;-76
2023/08/14 09:11:05;;;;;;;0.40;0.40;;;;;;;;;;5006148;28;20052;-72
2023/08/14 09:13:30;;;;;;;0.80;0.70;;;26.80;99.90;;;;;;4999432;28;20038;-72
2023/08/14 09:15:56;;;;;;;1.13;0.88;;;26.60;99.90;;;;;;4985692;28;20045;-72
2023/08/14 09:18:22;;;;;;;0.43;0.43;;;27.10;99.90;;;;;;5006324;28;20034;-73
2023/08/14 09:20:47;;;;;;;0.50;0.50;;;27.20;99.90;;;;;;4990240;28;20042;-72
2023/08/14 09:23:13;;;;;;;0.50;0.50;;;27.30;99.90;;;;;;5006446;28;20128;-73
2023/08/14 09:25:46;;;;;;;1.08;0.68;;;27.60;99.90;;;;;;5006771;28;20030;-73
2023/08/14 09:28:12;;;;;;;0.30;0.30;;;27.50;99.90;;;;;;5001495;28;20128;-73
2023/08/14 09:30:40;;;;;;;0.30;0.30;;;27.60;99.90;;;;;;4989373;28;20049;-73
2023/08/14 09:33:11;;;;;;;0.40;0.40;;;27.90;99.90;;;;;;5005637;28;20121;-73
2023/08/14 09:35:38;;;;;;;0.30;0.30;;;27.60;99.90;;;;;;5010053;28;20037;-72
2023/08/14 09:38:04;;;;;;;0.43;0.43;;;;;;;;;;5009678;28;20184;-73
2023/08/14 09:40:31;;;;;;;0.73;0.73;;;;;;;;;;5005988;28;20034;-72
2023/08/14 09:42:57;;;;;;;0.40;0.40;;;;;;;;;;5010061;28;20042;-72
2023/08/14 09:45:28;;;;;;;0.63;0.63;;;;;;;;;;5009307;28;20395;-72
2023/08/14 09:48:00;;;;;;;0.55;0.55;;;27.80;99.90;;;;;;4988893;28;20046;-73
2023/08/14 09:50:29;;;;;;;1.02;0.85;;;;;;;;;;5001635;28;20038;-72
2023/08/14 09:52:59;;;;;;;0.57;0.57;;;28.00;99.90;;;;;;5009223;28;20460;-72
2023/08/14 09:55:27;;;;;;;0.50;0.50;;;;;;;;;;4990305;28;20053;-72
2023/08/14 09:57:53;;;;;;;;;;;;;;;;;;5007954;28;20045;-73
2023/08/14 10:00:19;;;;;;;0.60;0.60;;;28.00;99.90;;;;;;4992247;28;19969;-72
2023/08/14 10:02:47;;;;;;;0.40;0.40;;;27.90;99.90;;;;;;5009131;28;20301;-72
2023/08/14 10:05:15;;;;;;;0.40;0.40;;;27.80;99.90;;;;;;5009306;28;20563;-72
2023/08/14 10:07:42;;;;;;;0.40;0.40;;;;;;;;;;4991021;28;20080;-72
2023/08/14 10:10:09;;;;;;;0.50;0.50;;;;;;;;;;5009695;28;20057;-72
2023/08/14 10:12:51;;;;;;;0.90;0.63;;;28.00;99.90;;;;;;5007989;28;20042;-72
2023/08/14 10:15:28;;;;;;;0.57;0.57;;;28.70;99.90;;;;;;5008696;28;20042;-72
2023/08/14 10:18:15;;;;;;;0.52;0.52;;;28.50;99.90;;;;;;4989399;28;20148;-72
2023/08/14 10:20:43;;;;;;;0.30;0.30;;;28.60;99.90;;;;;;4978457;28;20034;-72
2023/08/14 10:23:10;;;;;;;0.40;0.40;;;28.50;99.90;;;;;;5007778;28;20061;-72
2023/08/14 10:25:37;;;;;;;0.40;0.40;;;28.60;99.90;;;;;;5000246;28;20046;-72
2023/08/14 10:28:04;;;;;;;0.35;0.35;;;29.00;99.90;;;;;;5009297;28;20042;-72
2023/08/14 10:30:31;;;;;;;0.40;0.40;;;28.80;99.90;;;;;;4991575;28;20132;-73
2023/08/14 10:32:57;;;;;;;0.40;0.40;;;29.00;99.90;;;;;;5008313;28;20049;-72
2023/08/14 10:35:25;;;;;;;0.40;0.40;;;29.10;99.90;;;;;;4991875;28;20509;-72
2023/08/14 10:37:52;;;;;;;0.68;0.68;;;29.40;99.90;;;;;;4992735;28;20037;-72
2023/08/14 10:40:23;;;;;;;0.40;0.40;;;29.20;99.90;;;;;;5007701;28;20049;-73
2023/08/14 10:42:55;;;;;;;0.30;0.30;;;29.10;99.90;;;;;;4992596;28;20077;-73
2023/08/14 10:45:28;;;;;;;0.40;0.40;;;29.40;99.90;;;;;;5018778;28;20049;-73
2023/08/14 10:47:59;;;;;;;0.47;0.47;;;29.30;99.90;;;;;;5006464;28;20046;-73
2023/08/14 10:50:28;;;;;;;0.30;0.30;;;29.80;99.90;;;;;;4990157;28;20077;-72
2023/08/14 10:52:55;;;;;;;0.40;0.40;;;29.40;99.90;;;;;;5008736;28;20565;-72
2023/08/14 10:55:42;;;;;;;0.30;0.30;;;29.50;99.90;;;;;;4991237;28;20505;-72
2023/08/14 10:58:32;;;;;;;0.50;0.50;;;29.50;99.90;;;;;;4990724;28;20410;-71
2023/08/14 11:00:59;;;;;;;0.30;0.30;;;29.50;99.90;;;;;;5005149;28;20124;-73
2023/08/14 11:03:26;;;;;;;0.38;0.38;;;;;;;;;;4988541;28;20494;-73
2023/08/14 11:05:51;;;;;;;0.60;0.60;;;29.80;99.90;;;;;;4991737;28;20081;-73
2023/08/14 11:08:17;;;;;;;0.30;0.30;;;30.20;99.90;;;;;;4991543;28;20084;-73
2023/08/14 11:10:44;;;;;;;0.60;0.60;;;30.20;99.90;;;;;;5002858;28;20480;-73
2023/08/14 11:13:10;;;;;;;0.40;0.40;;;30.60;99.90;;;;;;5007579;28;20401;-72
2023/08/14 11:15:38;;;;;;;0.43;0.43;;;30.30;99.90;;;;;;4990372;28;20074;-72
2023/08/14 11:18:10;;;;;;;;;;;30.40;99.90;;;;;;5005194;28;20064;-73
2023/08/14 11:20:42;;;;;;;1.25;0.75;;;30.40;99.90;;;;;;4994682;28;19917;-72
2023/08/14 11:23:09;;;;;;;0.60;0.60;;;30.60;99.90;;;;;;5004528;28;20041;-71
2023/08/14 11:25:36;;;;;;;0.40;0.40;;;30.80;99.90;;;;;;4990820;28;20470;-72
2023/08/14 11:28:02;;;;;;;0.32;0.32;;;30.70;99.90;;;;;;5006253;28;20041;-73
2023/08/14 11:30:33;;;;;;;0.30;0.30;;;30.30;99.90;;;;;;4997475;28;20038;-74
2023/08/14 11:33:01;;;;;;;0.30;0.30;;;30.40;99.90;;;;;;5002786;28;20452;-73
2023/08/14 11:35:28;;;;;;;0.40;0.40;;;30.60;99.90;;;;;;5006856;28;20076;-73
2023/08/14 11:37:55;;;;;;;0.50;0.50;;;30.30;99.90;;;;;;5007512;28;20133;-73
2023/08/14 11:44:02;;;;;;;0.30;0.30;;;30.60;99.90;;;;;;5006594;28;20547;-71
2023/08/14 11:46:28;;;;;;;0.40;0.40;;;30.70;99.90;;;;;;5006268;28;20267;-73
2023/08/14 11:48:53;;;;;;;0.40;0.40;;;30.80;99.90;;;;;;5006168;28;20120;-73
2023/08/14 11:51:20;;;;;;;0.47;0.47;;;30.70;99.90;;;;;;4990498;28;20068;-73
2023/08/14 11:53:46;;;;;;;0.82;0.82;;;30.60;99.90;;;;;;5004013;28;20042;-72
2023/08/14 11:56:12;;;;;;;0.40;0.40;;;30.70;99.90;;;;;;5006437;28;20474;-71
2023/08/14 11:58:39;;;;;;;0.40;0.40;;;31.10;99.90;;;;;;5006709;28;20030;-74
2023/08/14 12:01:04;;;;;;;0.40;0.40;;;31.10;99.90;;;;;;4987316;28;20146;-74
2023/08/14 12:03:31;;;;;;;0.28;0.28;;;31.10;99.90;;;;;;4989699;28;20136;-74
2023/08/14 12:06:02;;;;;;;0.40;0.40;;;30.70;99.90;;;;;;4990460;28;20053;-74
2023/08/14 12:08:29;;;;;;;0.43;0.43;;;30.70;99.90;;;;;;4990231;28;20426;-74
2023/08/14 12:10:55;;;;;;;0.70;0.70;;;;;;;;;;5003956;28;20465;-74
2023/08/14 12:13:21;;;;;;;0.43;0.40;;;30.60;99.90;;;;;;4990074;28;20038;-73
2023/08/14 12:15:47;;;;;;;0.43;0.40;;;30.80;99.90;;;;;;4990120;28;20413;-74
2023/08/14 12:18:20;;;;;;;0.65;0.65;;;30.90;99.90;;;;;;4989771;28;20038;-71
2023/08/14 12:20:54;;;;;;;0.52;0.52;;;30.60;99.90;;;;;;5006018;28;20050;-74
2023/08/14 12:23:24;;;;;;;0.60;0.60;;;30.50;99.90;;;;;;5003044;28;20030;-74
2023/08/14 12:25:54;;;;;;;0.40;0.40;;;30.60;99.90;;;;;;5007620;28;20077;-73
2023/08/14 12:28:51;;;;;;;2.75;1.27;;;30.50;99.90;;;;;;5003123;28;20129;-73
2023/08/14 12:31:17;;;;;;;0.30;0.30;;;30.60;99.90;;;;;;5005291;28;20041;-73
2023/08/14 12:33:43;;;;;;;0.40;0.40;;;30.50;99.90;;;;;;5006597;28;20044;-71
2023/08/14 12:36:10;;;;;;;0.52;0.52;;;30.70;99.90;;;;;;4989978;28;20025;-72
2023/08/14 12:38:37;;;;;;;0.38;0.38;;;;;;;;;;5005607;28;20120;-74
2023/08/14 12:41:03;;;;;;;0.50;0.50;;;;;;;;;;5006072;28;20045;-74
2023/08/14 12:43:29;;;;;;;0.73;0.63;;;;;;;;;;5005899;28;20578;-74
2023/08/14 12:45:55;;;;;;;0.50;0.50;;;;;;;;;;5004517;28;20124;-74
2023/08/14 12:48:21;;;;;;;0.40;0.40;;;30.10;99.90;;;;;;4989245;28;20041;-74
2023/08/14 12:50:46;;;;;;;0.82;0.50;;;29.90;99.90;;;;;;5005708;28;20061;-74
2023/08/14 12:53:16;;;;;;;1.08;0.98;;;30.00;99.90;;;;;;5004224;28;20129;-73
2023/08/14 12:55:45;;;;;;;0.35;0.35;;;30.10;99.90;;;;;;5006828;28;20120;-74
2023/08/14 12:58:12;;;;;;;0.50;0.50;;;30.10;99.90;;;;;;5006675;28;20034;-74
2023/08/14 13:00:38;;;;;;;0.40;0.40;;;30.00;99.90;;;;;;4989564;28;20121;-73
2023/08/14 13:03:04;;;;;;;0.50;0.50;;;30.10;99.90;;;;;;5006112;28;20045;-71
2023/08/14 13:05:30;;;;;;;0.40;0.40;;;29.80;99.90;;;;;;5000701;28;20041;-73
2023/08/14 13:07:56;;;;;;;0.50;0.50;;;30.10;99.90;;;;;;4989845;28;20045;-74
2023/08/14 13:10:21;;;;;;;0.30;0.30;;;29.90;99.90;;;;;;5009512;28;20100;-74